Date,TemperatureHighF,TemperatureAvgF,TemperatureLowF,DewpointHighF,DewpointAvgF,DewpointLowF,HumidityHigh,HumidityAvg,HumidityLow,PressureMaxIn,PressureMinIn,WindSpeedMaxMPH,WindSpeedAvgMPH,GustSpeedMaxMPH,PrecipitationSumIn
2013-2-25,42,36,34,31,29,28,82,74,64,29.77,29.62,9,2,9,0.33
2013-2-26,46,37,32,34,27,23,86,68,45,29.86,29.68,13,3,13,0.04
2013-2-27,46,36,33,45,34,26,95,89,72,29.69,29.13,21,6,21,0.70
2013-2-28,50,37,32,38,32,28,90,82,60,29.18,29.06,8,2,10,0.01
2013-3-1,45,38,34,32,27,21,84,65,51,29.23,29.07,18,5,18,0.00
2013-3-2,42,36,33,26,23,21,65,59,51,29.23,29.16,15,5,15,0.00
2013-3-3,45,34,30,28,24,20,85,66,49,29.19,29.10,60,5,60,0.00
2013-3-4,41,33,26,23,19,14,66,56,44,29.31,29.14,25,10,25,0.00
2013-3-5,48,36,29,28,22,18,75,58,43,29.61,29.30,18,5,18,0.00
2013-3-6,39,35,32,32,30,27,88,81,65,29.63,29.57,25,8,25,0.08
2013-3-7,34,31,29,28,27,24,89,83,71,29.61,29.54,27,11,27,0.04
2013-3-8,40,33,29,34,26,17,89,78,44,29.69,29.49,24,9,24,0.04
2013-3-9,56,40,24,28,18,12,82,46,20,29.90,29.68,19,5,19,0.00
2013-3-10,51,36,21,31,25,16,84,66,40,29.97,29.84,8,2,9,0.00
2013-3-11,56,43,34,38,32,28,86,68,42,29.87,29.67,15,6,15,0.00
2013-3-12,56,49,41,51,45,38,95,88,73,29.68,29.23,21,6,21,0.31
2013-3-13,51,43,33,44,26,13,88,55,25,29.35,29.01,21,6,21,0.00
2013-3-14,36,30,21,20,8,-4,54,39,26,29.41,29.27,26,9,26,0.00
2013-3-15,42,30,18,26,9,-3,74,43,21,29.44,29.18,20,7,20,0.00
2013-3-16,42,34,26,25,10,0,73,40,21,29.43,29.23,14,4,14,0.00
2013-3-17,38,30,22,14,4,-6,60,35,21,29.86,29.42,23,6,23,0.00
2013-3-18,40,28,15,24,2,-9,84,35,21,30.01,29.75,15,4,15,0.00
2013-3-19,34,31,27,31,27,21,89,86,74,29.76,29.18,20,5,20,0.08
2013-3-20,40,31,24,25,16,9,87,55,32,29.36,29.25,22,4,22,0.13
2013-3-21,111,30,20,25,16,-11,83,59,26,29.37,22.71,46,3,46,0.00
2013-3-22,42,32,24,21,14,8,55,46,29,29.30,29.17,21,8,21,0.00
2013-3-23,43,35,28,21,15,11,66,45,28,29.36,29.21,27,10,27,0.00
2013-3-24,50,38,30,21,18,14,59,45,29,29.39,29.27,17,5,17,0.00
2013-3-25,44,36,30,30,24,11,67,61,53,29.32,29.06,20,5,20,0.00
2013-3-26,50,40,34,28,21,13,63,48,27,29.35,29.09,17,6,17,0.00
2013-3-27,55,43,33,28,19,13,61,39,22,29.43,23.73,21,8,21,0.00
2013-3-28,52,43,35,34,29,24,83,59,36,29.57,29.42,15,5,15,0.01
2013-3-29,58,47,38,32,28,20,70,50,25,29.60,29.49,17,6,17,0.00
2013-3-30,58,47,37,30,22,13,66,41,20,29.63,29.52,22,6,22,0.00
2013-3-31,60,46,29,38,24,17,80,47,21,29.65,26.60,22,6,22,0.01
2013-5-1,73,71,69,34,31,28,26,22,19,29.96,29.89,13,6,14,0.00
2013-5-3,65,56,43,46,43,40,94,62,48,30.04,29.86,15,6,17,0.00
2013-5-4,67,52,37,50,39,26,99,65,28,29.87,29.78,13,4,15,0.00
2013-5-5,67,50,33,44,39,33,99,70,38,29.86,29.73,11,3,12,0.00
2013-5-6,80,58,36,51,44,35,99,64,25,29.81,29.60,15,3,15,0.00
2013-5-7,81,66,45,59,52,44,99,65,35,29.69,29.55,14,4,16,0.00
2013-5-8,60,54,50,56,53,50,99,96,85,29.69,29.62,4,1,23,0.00
2013-5-21,92,68,50,70,59,50,99,77,42,29.53,29.34,15,5,16,0.27
2013-5-22,82,62,50,70,58,50,99,89,63,29.58,29.36,10,4,14,0.19
2013-5-23,73,65,55,70,63,54,99,94,83,29.44,29.34,16,5,18,0.02
2013-5-24,76,63,48,67,59,48,99,89,66,29.35,29.18,15,5,15,0.37
2013-5-25,51,46,40,50,46,39,99,99,94,29.36,29.26,17,7,19,0.43
2013-5-26,60,48,38,42,39,37,99,72,45,29.65,29.29,27,10,27,0.06
2013-5-27,74,58,38,46,38,27,99,55,19,29.70,29.60,17,5,17,0.00
2013-5-28,80,63,41,57,45,32,99,59,22,29.78,29.64,10,3,15,0.00
2013-5-29,77,64,57,68,62,56,99,92,71,29.69,29.48,15,3,23,0.39
2013-5-30,91,77,62,71,67,62,99,75,46,29.61,29.48,15,4,17,0.40
2013-5-31,96,83,68,71,67,62,98,63,35,29.85,29.44,13,5,15,0.00
2013-6-1,95,81,68,71,66,63,88,64,36,29.50,29.38,20,6,20,0.00
2013-6-2,90,78,68,71,68,63,96,73,42,29.41,29.24,23,8,25,0.00
2013-6-3,81,70,60,68,63,44,99,81,53,29.37,29.28,13,3,17,0.41
2013-6-4,75,62,51,50,44,39,93,53,34,29.61,29.35,17,6,24,0.00
2013-6-5,78,64,47,55,48,41,99,61,28,29.71,29.60,11,3,19,0.00
2013-6-6,76,64,50,55,51,46,99,65,39,29.71,29.61,15,3,16,0.02
2013-6-7,55,55,55,55,55,55,99,99,99,29.61,29.61,1,0,1,0.04